ADDS METAR Data INFO
IDs: Format: Raw Decoded Include TAF

Data at: 0932 UTC 11 Dec 2017

KSEE 110915Z AUTO 00000KT 10SM CLR 11/M06 A3016 RMK AO2
KSEE 110855Z AUTO 00000KT 10SM CLR 11/M06 A3015 RMK AO2
KSEE 110835Z AUTO 00000KT 10SM CLR 11/M06 A3016 RMK AO2
KSEE 110815Z AUTO 00000KT 10SM CLR 11/M06 A3016 RMK AO2
KSEE 110755Z AUTO 00000KT 10SM CLR 11/M07 A3016 RMK AO2
KSEE 110735Z AUTO 00000KT 10SM CLR 11/M07 A3016 RMK AO2
KSEE 110715Z AUTO 34003KT 10SM CLR 11/M07 A3017 RMK AO2
KSEE 110655Z AUTO 36004KT 10SM CLR 12/M08 A3017 RMK AO2
KSEE 110635Z AUTO 00000KT 10SM CLR 12/M08 A3017 RMK AO2
KSEE 110615Z AUTO 00000KT 10SM CLR 12/M08 A3016 RMK AO2
KSEE 110555Z AUTO 00000KT 10SM CLR 12/M08 A3016 RMK AO2
KSEE 110535Z AUTO 36003KT 10SM CLR 12/M07 A3016 RMK AO2
KSEE 110515Z AUTO 33003KT 10SM CLR 12/M07 A3015 RMK AO2
KSEE 110455Z AUTO 00000KT 10SM CLR 12/M07 A3015 RMK AO2
KSEE 110435Z AUTO 00000KT 10SM CLR 13/M07 A3015 RMK AO2
KSEE 110415Z AUTO 00000KT 10SM CLR 14/M07 A3014 RMK AO2
KSEE 110347Z 00000KT 10SM SKC 13/M07 A3015
KSEE 110247Z 00000KT 10SM SKC 16/M07 A3014
KSEE 110147Z 00000KT 10SM SKC 20/M08 A3012
KSEE 110047Z 00000KT 10SM SKC 22/M09 A3011
KSEE 102347Z 29005KT 10SM SKC 24/M10 A3009
KSEE 102247Z 28007KT 10SM SKC 26/M10 A3008
KSEE 102147Z 29008KT 10SM SKC 28/M10 A3008
KSEE 102047Z 27008KT 10SM SKC 27/M10 A3009
KSEE 101947Z VRB06KT 10SM SKC 27/M11 A3011
KSEE 101847Z 00000KT 10SM SKC 24/M07 A3014
KSEE 101747Z 00000KT 10SM SKC 19/M06 A3016
KSEE 101647Z 00000KT 10SM SKC 13/M07 A3017
KSEE 101559Z 00000KT 10SM SKC 10/M06 A3017
KSEE 101447Z VRB05KT 10SM SKC 07/M05 A3017
KSEE 101335Z AUTO 00000KT 10SM CLR 08/M06 A3014 RMK AO2
KSEE 101315Z AUTO 00000KT 10SM CLR 08/M06 A3014 RMK AO2
KSEE 101255Z AUTO 00000KT 10SM CLR 07/M06 A3013 RMK AO2
KSEE 101235Z AUTO 24003KT 10SM CLR 07/M06 A3012 RMK AO2
KSEE 101215Z AUTO 00000KT 10SM CLR 08/M06 A3012 RMK AO2
KSEE 101155Z AUTO 00000KT 10SM CLR 08/M06 A3012 RMK AO2
KSEE 101135Z AUTO 00000KT 10SM CLR 08/M06 A3013 RMK AO2
KSEE 101115Z AUTO 00000KT 10SM CLR 08/M06 A3013 RMK AO2
KSEE 101055Z AUTO 00000KT 10SM CLR 07/M06 A3013 RMK AO2
KSEE 101035Z AUTO 34003KT 10SM CLR 07/M06 A3013 RMK AO2
KSEE 101015Z AUTO 00000KT 10SM CLR 08/M06 A3013 RMK AO2
KSEE 100955Z AUTO 18004KT 10SM CLR 09/M06 A3014 RMK AO2
KSEE 100935Z AUTO 00000KT 10SM CLR 08/M06 A3015 RMK AO2
KSEE 100915Z AUTO 00000KT 10SM CLR 08/M07 A3014 RMK AO2
KSEE 100855Z AUTO 00000KT 10SM CLR 09/M06 A3014 RMK AO2
KSEE 100835Z AUTO 00000KT 10SM CLR 08/M06 A3015 RMK AO2
KSEE 100815Z AUTO 00000KT 10SM CLR 09/M07 A3015 RMK AO2
KSEE 100755Z AUTO 00000KT 10SM CLR 10/M07 A3015 RMK AO2
KSEE 100735Z AUTO 00000KT 10SM CLR 10/M07 A3016 RMK AO2
KSEE 100715Z AUTO 00000KT 10SM CLR 10/M07 A3016 RMK AO2
KSEE 100655Z AUTO 00000KT 10SM CLR 11/M07 A3016 RMK AO2
KSEE 100635Z AUTO 00000KT 10SM CLR 11/M06 A3016 RMK AO2
KSEE 100615Z AUTO 30006KT 10SM CLR 10/M07 A3015 RMK AO2
KSEE 100555Z AUTO 29004KT 10SM CLR 11/M08 A3015 RMK AO2
KSEE 100535Z AUTO 08003KT 10SM CLR 12/M07 A3015 RMK AO2
KSEE 100515Z AUTO 00000KT 10SM CLR 13/M08 A3015 RMK AO2
KSEE 100455Z AUTO 00000KT 10SM CLR 13/M08 A3014 RMK AO2
KSEE 100447Z 00000KT 9SM SKC 13/M08 A3016
KSEE 100435Z AUTO 00000KT 10SM CLR 13/M08 A3014 RMK AO2
KSEE 100415Z AUTO 00000KT 10SM CLR 15/M08 A3014 RMK AO2
KSEE 100347Z 00000KT 9SM SKC 17/M08 A3015
KSEE 100247Z 00000KT 9SM SKC 18/M10 A3014
KSEE 100047Z VRBO6KT 10SM SKC 24/M13 A3012
KSEE 092310Z 10008KT 10SM SKC 27/M14 A3010
KSEE 092247Z 00000KT 10SM SKC 27/M12 A3011